sensor_id;sensor_type;location;lat;lon;timestamp;pressure;altitude;pressure_sealevel;temperature;humidity
22753;BME280;11543;43.144;24.684;2022-07-29T00:00:47;98838.47;;;24.77;62.21
22753;BME280;11543;43.144;24.684;2022-07-29T00:03:13;98845.63;;;24.78;62.23
22753;BME280;11543;43.144;24.684;2022-07-29T00:05:39;98839.41;;;24.55;63.03
22753;BME280;11543;43.144;24.684;2022-07-29T00:08:05;98827.50;;;24.49;63.09
22753;BME280;11543;43.144;24.684;2022-07-29T00:10:31;98834.94;;;24.65;62.94
22753;BME280;11543;43.144;24.684;2022-07-29T00:12:56;98819.97;;;24.56;63.01
22753;BME280;11543;43.144;24.684;2022-07-29T00:15:22;98827.63;;;24.54;62.99
22753;BME280;11543;43.144;24.684;2022-07-29T00:17:47;98827.13;;;24.57;62.82
22753;BME280;11543;43.144;24.684;2022-07-29T00:20:13;98833.28;;;24.64;62.66
22753;BME280;11543;43.144;24.684;2022-07-29T00:22:39;98821.88;;;24.56;63.10
22753;BME280;11543;43.144;24.684;2022-07-29T00:25:06;98829.72;;;24.64;63.03
22753;BME280;11543;43.144;24.684;2022-07-29T00:27:32;98821.13;;;24.60;62.66
22753;BME280;11543;43.144;24.684;2022-07-29T00:29:57;98817.91;;;24.63;62.33
22753;BME280;11543;43.144;24.684;2022-07-29T00:32:23;98816.31;;;24.67;62.50
22753;BME280;11543;43.144;24.684;2022-07-29T00:34:48;98812.06;;;24.60;62.38
22753;BME280;11543;43.144;24.684;2022-07-29T00:37:32;98817.31;;;24.61;62.38
22753;BME280;11543;43.144;24.684;2022-07-29T00:39:57;98814.00;;;24.59;62.40
22753;BME280;11543;43.144;24.684;2022-07-29T00:42:23;98827.13;;;24.57;62.76
22753;BME280;11543;43.144;24.684;2022-07-29T00:44:48;98810.28;;;24.37;63.16
22753;BME280;11543;43.144;24.684;2022-07-29T00:47:14;98817.22;;;24.28;63.50
22753;BME280;11543;43.144;24.684;2022-07-29T00:49:41;98805.22;;;24.05;64.64
22753;BME280;11543;43.144;24.684;2022-07-29T00:52:08;98800.81;;;24.04;64.60
22753;BME280;11543;43.144;24.684;2022-07-29T00:54:34;98815.31;;;24.17;64.27
22753;BME280;11543;43.144;24.684;2022-07-29T00:57:00;98801.19;;;23.96;64.99
22753;BME280;11543;43.144;24.684;2022-07-29T00:59:26;98808.94;;;23.99;64.98
22753;BME280;11543;43.144;24.684;2022-07-29T01:01:52;98799.03;;;23.98;64.72
22753;BME280;11543;43.144;24.684;2022-07-29T01:04:18;98804.97;;;24.07;64.59
22753;BME280;11543;43.144;24.684;2022-07-29T01:06:43;98791.03;;;24.08;64.50
22753;BME280;11543;43.144;24.684;2022-07-29T01:09:10;98795.53;;;24.14;64.08
22753;BME280;11543;43.144;24.684;2022-07-29T01:11:36;98777.31;;;24.08;63.83
22753;BME280;11543;43.144;24.684;2022-07-29T01:14:02;98794.91;;;24.24;63.57
22753;BME280;11543;43.144;24.684;2022-07-29T01:16:39;98800.28;;;24.31;63.39
22753;BME280;11543;43.144;24.684;2022-07-29T01:19:22;98807.88;;;24.40;63.43
22753;BME280;11543;43.144;24.684;2022-07-29T01:21:57;98806.81;;;24.41;63.56
22753;BME280;11543;43.144;24.684;2022-07-29T01:29:54;98806.25;;;24.28;63.96
22753;BME280;11543;43.144;24.684;2022-07-29T01:32:24;98804.56;;;24.27;63.94
22753;BME280;11543;43.144;24.684;2022-07-29T01:35:12;98782.69;;;24.03;64.26
22753;BME280;11543;43.144;24.684;2022-07-29T01:40:16;98790.56;;;24.00;64.92
22753;BME280;11543;43.144;24.684;2022-07-29T01:42:49;98794.34;;;24.10;64.28
22753;BME280;11543;43.144;24.684;2022-07-29T01:45:18;98767.22;;;23.97;64.29
22753;BME280;11543;43.144;24.684;2022-07-29T01:48:00;98797.28;;;24.21;64.02
22753;BME280;11543;43.144;24.684;2022-07-29T01:50:38;98791.72;;;24.15;63.81
22753;BME280;11543;43.144;24.684;2022-07-29T01:53:09;98781.72;;;24.09;64.05
22753;BME280;11543;43.144;24.684;2022-07-29T01:55:39;98795.13;;;24.23;63.97
22753;BME280;11543;43.144;24.684;2022-07-29T01:58:06;98791.31;;;24.24;63.96
22753;BME280;11543;43.144;24.684;2022-07-29T02:00:33;98800.88;;;24.21;63.92
22753;BME280;11543;43.144;24.684;2022-07-29T02:03:02;98789.34;;;24.07;64.30
22753;BME280;11543;43.144;24.684;2022-07-29T02:05:29;98779.03;;;23.98;64.65
22753;BME280;11543;43.144;24.684;2022-07-29T02:07:57;98771.44;;;23.88;64.85
22753;BME280;11543;43.144;24.684;2022-07-29T02:10:27;98779.84;;;23.98;64.63
22753;BME280;11543;43.144;24.684;2022-07-29T02:12:55;98783.78;;;24.02;64.50
22753;BME280;11543;43.144;24.684;2022-07-29T02:15:23;98771.03;;;23.96;64.09
22753;BME280;11543;43.144;24.684;2022-07-29T02:17:58;98781.03;;;24.02;64.08
22753;BME280;11543;43.144;24.684;2022-07-29T02:20:25;98781.88;;;24.03;64.24
22753;BME280;11543;43.144;24.684;2022-07-29T02:22:54;98780.78;;;24.04;64.20
22753;BME280;11543;43.144;24.684;2022-07-29T02:25:22;98787.94;;;24.05;64.14
22753;BME280;11543;43.144;24.684;2022-07-29T02:27:50;98790.78;;;24.10;64.37
22753;BME280;11543;43.144;24.684;2022-07-29T02:30:17;98754.75;;;23.90;64.09
22753;BME280;11543;43.144;24.684;2022-07-29T02:32:44;98764.50;;;23.97;64.15
22753;BME280;11543;43.144;24.684;2022-07-29T02:35:13;98767.22;;;23.97;64.07
22753;BME280;11543;43.144;24.684;2022-07-29T02:37:39;98791.84;;;24.09;64.09
22753;BME280;11543;43.144;24.684;2022-07-29T02:40:09;98785.53;;;24.08;63.95
22753;BME280;11543;43.144;24.684;2022-07-29T02:42:36;98794.72;;;24.02;64.26
22753;BME280;11543;43.144;24.684;2022-07-29T02:45:03;98758.97;;;23.69;64.65
22753;BME280;11543;43.144;24.684;2022-07-29T02:47:43;98790.53;;;23.71;65.46
22753;BME280;11543;43.144;24.684;2022-07-29T02:50:15;98772.91;;;23.44;66.20
22753;BME280;11543;43.144;24.684;2022-07-29T02:52:59;98797.31;;;23.45;66.50
22753;BME280;11543;43.144;24.684;2022-07-29T02:58:01;98801.25;;;23.49;66.68
22753;BME280;11543;43.144;24.684;2022-07-29T03:00:29;98792.19;;;23.49;66.79
22753;BME280;11543;43.144;24.684;2022-07-29T03:02:57;98786.97;;;23.47;67.15
22753;BME280;11543;43.144;24.684;2022-07-29T03:05:24;98790.88;;;23.51;67.51
22753;BME280;11543;43.144;24.684;2022-07-29T03:07:54;98804.25;;;23.60;67.90
22753;BME280;11543;43.144;24.684;2022-07-29T03:10:21;98805.31;;;23.59;68.01
22753;BME280;11543;43.144;24.684;2022-07-29T03:12:47;98800.31;;;23.56;68.12
22753;BME280;11543;43.144;24.684;2022-07-29T03:15:13;98809.72;;;23.60;68.05
22753;BME280;11543;43.144;24.684;2022-07-29T03:17:39;98804.97;;;23.55;67.82
22753;BME280;11543;43.144;24.684;2022-07-29T03:20:06;98821.38;;;23.67;67.74
22753;BME280;11543;43.144;24.684;2022-07-29T03:22:32;98829.81;;;23.77;67.37
22753;BME280;11543;43.144;24.684;2022-07-29T03:25:07;98824.94;;;23.79;66.44
22753;BME280;11543;43.144;24.684;2022-07-29T03:27:34;98819.47;;;23.79;66.13
22753;BME280;11543;43.144;24.684;2022-07-29T03:29:59;98837.44;;;23.87;66.05
22753;BME280;11543;43.144;24.684;2022-07-29T03:32:24;98817.91;;;23.83;65.52
22753;BME280;11543;43.144;24.684;2022-07-29T03:34:50;98814.31;;;23.82;65.25
22753;BME280;11543;43.144;24.684;2022-07-29T03:37:15;98823.50;;;23.88;65.32
22753;BME280;11543;43.144;24.684;2022-07-29T03:39:42;98825.84;;;23.96;64.80
22753;BME280;11543;43.144;24.684;2022-07-29T03:42:11;98823.59;;;23.93;64.99
22753;BME280;11543;43.144;24.684;2022-07-29T03:44:41;98834.66;;;23.98;64.90
22753;BME280;11543;43.144;24.684;2022-07-29T03:47:09;98837.84;;;24.07;64.75
22753;BME280;11543;43.144;24.684;2022-07-29T03:49:36;98843.22;;;24.13;64.45
22753;BME280;11543;43.144;24.684;2022-07-29T03:52:03;98848.69;;;24.13;64.25
22753;BME280;11543;43.144;24.684;2022-07-29T03:54:29;98841.53;;;24.12;64.26
22753;BME280;11543;43.144;24.684;2022-07-29T03:56:57;98846.06;;;24.19;64.11
22753;BME280;11543;43.144;24.684;2022-07-29T03:59:25;98817.84;;;24.06;64.02
22753;BME280;11543;43.144;24.684;2022-07-29T04:01:51;98830.56;;;24.12;63.98
22753;BME280;11543;43.144;24.684;2022-07-29T04:04:17;98821.75;;;24.10;63.94
22753;BME280;11543;43.144;24.684;2022-07-29T04:06:44;98821.63;;;24.17;63.91
22753;BME280;11543;43.144;24.684;2022-07-29T04:09:11;98845.69;;;24.27;63.98
22753;BME280;11543;43.144;24.684;2022-07-29T04:11:38;98821.28;;;24.13;63.63
22753;BME280;11543;43.144;24.684;2022-07-29T04:14:04;98835.78;;;24.26;63.54
22753;BME280;11543;43.144;24.684;2022-07-29T04:16:29;98836.19;;;24.29;63.88
22753;BME280;11543;43.144;24.684;2022-07-29T04:18:55;98833.03;;;24.26;63.90
22753;BME280;11543;43.144;24.684;2022-07-29T04:21:20;98855.00;;;24.37;63.91
22753;BME280;11543;43.144;24.684;2022-07-29T04:23:46;98850.34;;;24.38;63.85
22753;BME280;11543;43.144;24.684;2022-07-29T04:26:18;98846.16;;;24.35;63.76
22753;BME280;11543;43.144;24.684;2022-07-29T04:28:44;98860.91;;;24.46;63.53
22753;BME280;11543;43.144;24.684;2022-07-29T04:31:11;98858.84;;;24.53;63.79
22753;BME280;11543;43.144;24.684;2022-07-29T04:33:36;98844.56;;;24.51;63.58
22753;BME280;11543;43.144;24.684;2022-07-29T04:36:02;98829.44;;;24.49;63.39
22753;BME280;11543;43.144;24.684;2022-07-29T04:38:28;98849.25;;;24.67;63.23
22753;BME280;11543;43.144;24.684;2022-07-29T04:40:53;98842.94;;;24.67;63.38
22753;BME280;11543;43.144;24.684;2022-07-29T04:43:18;98836.63;;;24.66;63.32
22753;BME280;11543;43.144;24.684;2022-07-29T04:45:44;98833.47;;;24.74;63.14
22753;BME280;11543;43.144;24.684;2022-07-29T04:48:09;98825.81;;;24.76;62.77
22753;BME280;11543;43.144;24.684;2022-07-29T04:50:38;98855.31;;;24.98;62.75
22753;BME280;11543;43.144;24.684;2022-07-29T04:53:03;98837.31;;;24.90;62.83
22753;BME280;11543;43.144;24.684;2022-07-29T04:55:29;98851.91;;;25.07;62.46
22753;BME280;11543;43.144;24.684;2022-07-29T04:57:54;98848.66;;;25.11;62.54
22753;BME280;11543;43.144;24.684;2022-07-29T05:00:20;98836.84;;;25.10;62.36
22753;BME280;11543;43.144;24.684;2022-07-29T05:02:45;98845.38;;;25.25;62.42
22753;BME280;11543;43.144;24.684;2022-07-29T05:05:11;98834.38;;;25.25;61.78
22753;BME280;11543;43.144;24.684;2022-07-29T05:07:36;98848.94;;;25.43;62.07
22753;BME280;11543;43.144;24.684;2022-07-29T05:10:02;98857.41;;;25.58;61.66
22753;BME280;11543;43.144;24.684;2022-07-29T05:12:28;98850.31;;;25.62;61.46
22753;BME280;11543;43.144;24.684;2022-07-29T05:14:53;98855.00;;;25.78;61.33
22753;BME280;11543;43.144;24.684;2022-07-29T05:17:19;98829.34;;;25.73;60.89
22753;BME280;11543;43.144;24.684;2022-07-29T05:19:45;98842.78;;;25.91;60.78
22753;BME280;11543;43.144;24.684;2022-07-29T05:22:10;98849.28;;;26.01;60.89
22753;BME280;11543;43.144;24.684;2022-07-29T05:24:36;98855.16;;;26.10;60.55
22753;BME280;11543;43.144;24.684;2022-07-29T05:27:01;98858.38;;;26.24;60.25
22753;BME280;11543;43.144;24.684;2022-07-29T05:29:26;98855.69;;;26.29;60.01
22753;BME280;11543;43.144;24.684;2022-07-29T05:31:52;98861.34;;;26.39;59.83
22753;BME280;11543;43.144;24.684;2022-07-29T05:34:18;98865.28;;;26.48;59.58
22753;BME280;11543;43.144;24.684;2022-07-29T05:36:44;98871.41;;;26.55;59.58
22753;BME280;11543;43.144;24.684;2022-07-29T05:39:10;98852.94;;;26.51;59.31
22753;BME280;11543;43.144;24.684;2022-07-29T05:41:36;98856.63;;;26.61;59.38
22753;BME280;11543;43.144;24.684;2022-07-29T05:44:02;98841.72;;;26.57;59.27
22753;BME280;11543;43.144;24.684;2022-07-29T05:46:27;98856.13;;;26.64;59.16
22753;BME280;11543;43.144;24.684;2022-07-29T05:48:53;98871.06;;;26.74;58.98
22753;BME280;11543;43.144;24.684;2022-07-29T05:51:19;98855.53;;;26.62;59.25
22753;BME280;11543;43.144;24.684;2022-07-29T05:53:44;98868.53;;;26.67;59.20
22753;BME280;11543;43.144;24.684;2022-07-29T05:56:10;98868.22;;;26.63;59.02
22753;BME280;11543;43.144;24.684;2022-07-29T05:58:36;98865.47;;;26.63;58.68
22753;BME280;11543;43.144;24.684;2022-07-29T06:01:02;98874.81;;;26.62;58.97
22753;BME280;11543;43.144;24.684;2022-07-29T06:03:28;98856.56;;;26.56;59.00
22753;BME280;11543;43.144;24.684;2022-07-29T06:06:12;98876.31;;;26.75;59.27
22753;BME280;11543;43.144;24.684;2022-07-29T06:08:38;98882.66;;;26.76;59.06
22753;BME280;11543;43.144;24.684;2022-07-29T06:11:05;98864.88;;;26.61;59.49
22753;BME280;11543;43.144;24.684;2022-07-29T06:13:31;98855.75;;;26.56;59.36
22753;BME280;11543;43.144;24.684;2022-07-29T06:15:57;98866.59;;;26.67;59.66
22753;BME280;11543;43.144;24.684;2022-07-29T06:18:22;98878.28;;;26.80;59.45
22753;BME280;11543;43.144;24.684;2022-07-29T06:20:52;98874.06;;;26.94;59.18
22753;BME280;11543;43.144;24.684;2022-07-29T06:23:19;98875.22;;;26.98;59.14
22753;BME280;11543;43.144;24.684;2022-07-29T06:25:44;98874.78;;;27.11;58.79
22753;BME280;11543;43.144;24.684;2022-07-29T06:28:10;98870.50;;;27.25;58.42
22753;BME280;11543;43.144;24.684;2022-07-29T06:30:36;98876.72;;;27.43;58.10
22753;BME280;11543;43.144;24.684;2022-07-29T06:33:02;98871.88;;;27.60;57.89
22753;BME280;11543;43.144;24.684;2022-07-29T06:35:28;98863.19;;;27.73;57.27
22753;BME280;11543;43.144;24.684;2022-07-29T06:37:53;98867.47;;;27.96;56.75
22753;BME280;11543;43.144;24.684;2022-07-29T06:40:20;98872.88;;;28.23;56.61
22753;BME280;11543;43.144;24.684;2022-07-29T06:43:04;98876.28;;;28.50;55.85
22753;BME280;11543;43.144;24.684;2022-07-29T06:45:29;98862.56;;;28.66;55.42
22753;BME280;11543;43.144;24.684;2022-07-29T06:47:55;98852.69;;;28.90;54.93
22753;BME280;11543;43.144;24.684;2022-07-29T06:50:20;98843.88;;;29.08;54.59
22753;BME280;11543;43.144;24.684;2022-07-29T06:52:47;98855.50;;;29.46;53.76
22753;BME280;11543;43.144;24.684;2022-07-29T06:55:12;98853.81;;;29.75;52.64
22753;BME280;11543;43.144;24.684;2022-07-29T06:57:38;98850.72;;;29.92;52.12
22753;BME280;11543;43.144;24.684;2022-07-29T07:00:04;98850.16;;;30.10;51.64
22753;BME280;11543;43.144;24.684;2022-07-29T07:02:30;98841.47;;;30.32;51.62
22753;BME280;11543;43.144;24.684;2022-07-29T07:04:56;98845.25;;;30.62;50.49
22753;BME280;11543;43.144;24.684;2022-07-29T07:07:21;98841.00;;;30.80;49.57
22753;BME280;11543;43.144;24.684;2022-07-29T07:09:47;98839.59;;;30.82;49.89
22753;BME280;11543;43.144;24.684;2022-07-29T07:12:12;98833.41;;;30.95;49.04
22753;BME280;11543;43.144;24.684;2022-07-29T07:14:38;98828.31;;;31.08;49.08
22753;BME280;11543;43.144;24.684;2022-07-29T07:17:04;98842.06;;;31.28;48.62
22753;BME280;11543;43.144;24.684;2022-07-29T07:19:32;98850.59;;;31.36;48.85
22753;BME280;11543;43.144;24.684;2022-07-29T07:21:57;98839.78;;;31.35;48.74
22753;BME280;11543;43.144;24.684;2022-07-29T07:24:23;98846.25;;;31.54;48.86
22753;BME280;11543;43.144;24.684;2022-07-29T07:26:48;98839.41;;;31.76;48.01
22753;BME280;11543;43.144;24.684;2022-07-29T07:29:13;98835.81;;;31.99;46.47
22753;BME280;11543;43.144;24.684;2022-07-29T07:31:39;98822.91;;;32.13;46.34
22753;BME280;11543;43.144;24.684;2022-07-29T07:34:04;98823.28;;;32.30;46.00
22753;BME280;11543;43.144;24.684;2022-07-29T07:36:30;98823.06;;;32.46;45.80
22753;BME280;11543;43.144;24.684;2022-07-29T07:38:55;98832.22;;;32.65;45.15
22753;BME280;11543;43.144;24.684;2022-07-29T07:41:21;98820.41;;;32.78;44.31
22753;BME280;11543;43.144;24.684;2022-07-29T07:43:47;98836.31;;;32.91;44.11
22753;BME280;11543;43.144;24.684;2022-07-29T07:46:12;98833.41;;;33.02;44.13
22753;BME280;11543;43.144;24.684;2022-07-29T07:48:38;98833.31;;;33.07;44.20
22753;BME280;11543;43.144;24.684;2022-07-29T07:51:03;98831.66;;;33.06;43.97
22753;BME280;11543;43.144;24.684;2022-07-29T07:53:29;98822.81;;;33.04;43.56
22753;BME280;11543;43.144;24.684;2022-07-29T07:55:55;98829.41;;;33.08;44.07
22753;BME280;11543;43.144;24.684;2022-07-29T07:58:21;98826.38;;;33.23;44.04
22753;BME280;11543;43.144;24.684;2022-07-29T08:00:46;98820.66;;;33.33;42.62
22753;BME280;11543;43.144;24.684;2022-07-29T08:03:12;98826.56;;;33.45;42.39
22753;BME280;11543;43.144;24.684;2022-07-29T08:05:39;98823.19;;;33.48;42.55
22753;BME280;11543;43.144;24.684;2022-07-29T08:08:05;98814.94;;;33.43;42.38
22753;BME280;11543;43.144;24.684;2022-07-29T08:10:31;98828.44;;;33.50;42.92
22753;BME280;11543;43.144;24.684;2022-07-29T08:13:15;98831.75;;;33.66;42.63
22753;BME280;11543;43.144;24.684;2022-07-29T08:15:40;98817.75;;;33.71;42.39
22753;BME280;11543;43.144;24.684;2022-07-29T08:18:07;98818.34;;;33.86;42.09
22753;BME280;11543;43.144;24.684;2022-07-29T08:20:33;98810.50;;;34.02;42.12
22753;BME280;11543;43.144;24.684;2022-07-29T08:23:01;98820.78;;;34.29;41.26
22753;BME280;11543;43.144;24.684;2022-07-29T08:25:26;98804.09;;;34.43;40.07
22753;BME280;11543;43.144;24.684;2022-07-29T08:27:52;98799.31;;;34.57;40.26
22753;BME280;11543;43.144;24.684;2022-07-29T08:30:18;98806.31;;;34.68;39.36
22753;BME280;11543;43.144;24.684;2022-07-29T08:32:43;98816.59;;;34.95;39.46
22753;BME280;11543;43.144;24.684;2022-07-29T08:35:08;98811.56;;;35.06;39.42
22753;BME280;11543;43.144;24.684;2022-07-29T08:37:34;98809.69;;;35.15;38.79
22753;BME280;11543;43.144;24.684;2022-07-29T08:39:59;98805.25;;;35.36;38.01
22753;BME280;11543;43.144;24.684;2022-07-29T08:42:25;98792.19;;;35.46;37.38
22753;BME280;11543;43.144;24.684;2022-07-29T08:44:50;98802.44;;;35.59;37.18
22753;BME280;11543;43.144;24.684;2022-07-29T08:47:16;98814.69;;;35.80;36.31
22753;BME280;11543;43.144;24.684;2022-07-29T08:49:42;98805.81;;;35.78;36.15
22753;BME280;11543;43.144;24.684;2022-07-29T08:52:11;98812.97;;;35.93;36.10
22753;BME280;11543;43.144;24.684;2022-07-29T08:54:40;98814.66;;;36.02;36.37
22753;BME280;11543;43.144;24.684;2022-07-29T08:57:12;98790.03;;;36.04;35.81
22753;BME280;11543;43.144;24.684;2022-07-29T08:59:42;98805.03;;;36.26;35.32
22753;BME280;11543;43.144;24.684;2022-07-29T09:02:18;98791.16;;;36.43;34.72
22753;BME280;11543;43.144;24.684;2022-07-29T09:04:44;98782.75;;;36.43;34.31
22753;BME280;11543;43.144;24.684;2022-07-29T09:07:19;98789.50;;;36.51;34.08
22753;BME280;11543;43.144;24.684;2022-07-29T09:09:45;98786.88;;;36.54;33.94
22753;BME280;11543;43.144;24.684;2022-07-29T09:12:12;98783.28;;;36.62;33.09
22753;BME280;11543;43.144;24.684;2022-07-29T09:14:38;98788.38;;;36.60;33.28
22753;BME280;11543;43.144;24.684;2022-07-29T09:17:04;98774.56;;;36.73;32.30
22753;BME280;11543;43.144;24.684;2022-07-29T09:19:35;98794.66;;;36.92;32.41
22753;BME280;11543;43.144;24.684;2022-07-29T09:22:03;98773.91;;;36.93;32.49
22753;BME280;11543;43.144;24.684;2022-07-29T09:24:46;98776.72;;;37.02;32.63
22753;BME280;11543;43.144;24.684;2022-07-29T09:27:25;98782.28;;;37.19;32.22
22753;BME280;11543;43.144;24.684;2022-07-29T09:30:10;98780.66;;;37.35;31.04
22753;BME280;11543;43.144;24.684;2022-07-29T09:32:59;98782.25;;;37.53;30.75
22753;BME280;11543;43.144;24.684;2022-07-29T09:35:27;98765.97;;;37.47;30.00
22753;BME280;11543;43.144;24.684;2022-07-29T09:37:53;98767.06;;;37.63;29.08
22753;BME280;11543;43.144;24.684;2022-07-29T09:40:25;98778.06;;;37.68;29.49
22753;BME280;11543;43.144;24.684;2022-07-29T09:42:52;98777.41;;;37.80;29.89
22753;BME280;11543;43.144;24.684;2022-07-29T09:45:30;98770.25;;;37.91;29.35
22753;BME280;11543;43.144;24.684;2022-07-29T09:47:57;98758.38;;;37.94;28.46
22753;BME280;11543;43.144;24.684;2022-07-29T09:50:41;98761.09;;;38.20;27.92
22753;BME280;11543;43.144;24.684;2022-07-29T09:53:07;98751.19;;;38.22;28.14
22753;BME280;11543;43.144;24.684;2022-07-29T09:55:46;98749.06;;;38.40;28.29
22753;BME280;11543;43.144;24.684;2022-07-29T09:58:21;98749.25;;;38.65;28.39
22753;BME280;11543;43.144;24.684;2022-07-29T10:00:48;98745.81;;;38.80;26.89
22753;BME280;11543;43.144;24.684;2022-07-29T10:03:15;98743.03;;;38.92;26.37
22753;BME280;11543;43.144;24.684;2022-07-29T10:05:41;98731.13;;;38.95;25.38
22753;BME280;11543;43.144;24.684;2022-07-29T10:08:09;98751.41;;;38.80;26.27
22753;BME280;11543;43.144;24.684;2022-07-29T10:10:37;98745.38;;;38.90;25.86
22753;BME280;11543;43.144;24.684;2022-07-29T10:13:04;98749.06;;;39.03;26.59
22753;BME280;11543;43.144;24.684;2022-07-29T10:15:32;98754.38;;;39.04;26.19
22753;BME280;11543;43.144;24.684;2022-07-29T10:17:59;98742.91;;;38.88;26.99
22753;BME280;11543;43.144;24.684;2022-07-29T10:20:27;98735.59;;;38.96;26.90
22753;BME280;11543;43.144;24.684;2022-07-29T10:22:53;98733.56;;;39.05;27.09
22753;BME280;11543;43.144;24.684;2022-07-29T10:25:19;98737.31;;;39.09;27.04
22753;BME280;11543;43.144;24.684;2022-07-29T10:27:46;98734.09;;;39.32;27.35
22753;BME280;11543;43.144;24.684;2022-07-29T10:30:13;98728.56;;;39.56;26.46
22753;BME280;11543;43.144;24.684;2022-07-29T10:38:48;98726.00;;;40.24;25.98
22753;BME280;11543;43.144;24.684;2022-07-29T10:44:21;98698.97;;;40.60;25.62
22753;BME280;11543;43.144;24.684;2022-07-29T10:46:48;98693.31;;;40.72;25.68
22753;BME280;11543;43.144;24.684;2022-07-29T10:49:21;98696.78;;;40.93;24.54
22753;BME280;11543;43.144;24.684;2022-07-29T10:54:16;98690.81;;;41.11;24.77
22753;BME280;11543;43.144;24.684;2022-07-29T10:56:42;98699.66;;;41.25;24.31
22753;BME280;11543;43.144;24.684;2022-07-29T11:01:49;98690.63;;;41.03;24.87
22753;BME280;11543;43.144;24.684;2022-07-29T11:04:15;98688.06;;;40.98;24.37
22753;BME280;11543;43.144;24.684;2022-07-29T11:07:09;98681.00;;;41.04;24.67
22753;BME280;11543;43.144;24.684;2022-07-29T11:09:34;98673.25;;;40.86;25.33
22753;BME280;11543;43.144;24.684;2022-07-29T11:12:00;98667.25;;;40.87;24.62
22753;BME280;11543;43.144;24.684;2022-07-29T11:17:19;98683.88;;;40.92;25.08
22753;BME280;11543;43.144;24.684;2022-07-29T11:19:45;98678.25;;;40.92;24.84
22753;BME280;11543;43.144;24.684;2022-07-29T11:22:11;98678.16;;;40.89;24.69
22753;BME280;11543;43.144;24.684;2022-07-29T11:25:15;98677.13;;;40.69;25.15
22753;BME280;11543;43.144;24.684;2022-07-29T11:27:41;98671.25;;;40.74;25.17
22753;BME280;11543;43.144;24.684;2022-07-29T11:30:08;98674.78;;;40.83;24.92
22753;BME280;11543;43.144;24.684;2022-07-29T11:32:41;98663.53;;;40.83;24.33
22753;BME280;11543;43.144;24.684;2022-07-29T11:35:18;98666.81;;;40.85;24.71
22753;BME280;11543;43.144;24.684;2022-07-29T11:37:46;98649.91;;;40.85;24.01
22753;BME280;11543;43.144;24.684;2022-07-29T11:40:14;98645.00;;;40.82;25.06
22753;BME280;11543;43.144;24.684;2022-07-29T11:42:42;98647.22;;;41.04;24.14
22753;BME280;11543;43.144;24.684;2022-07-29T11:45:16;98646.22;;;41.13;23.91
22753;BME280;11543;43.144;24.684;2022-07-29T11:50:13;98638.91;;;41.24;24.24
22753;BME280;11543;43.144;24.684;2022-07-29T11:52:41;98651.53;;;41.46;23.79
22753;BME280;11543;43.144;24.684;2022-07-29T11:55:14;98645.81;;;41.42;23.65
22753;BME280;11543;43.144;24.684;2022-07-29T11:57:59;98640.31;;;41.18;23.90
22753;BME280;11543;43.144;24.684;2022-07-29T12:00:39;98637.31;;;41.11;24.31
22753;BME280;11543;43.144;24.684;2022-07-29T12:03:09;98634.59;;;41.14;24.36
22753;BME280;11543;43.144;24.684;2022-07-29T12:10:40;98621.91;;;41.52;23.63
22753;BME280;11543;43.144;24.684;2022-07-29T12:13:06;98622.88;;;41.59;23.44
22753;BME280;11543;43.144;24.684;2022-07-29T12:15:32;98623.19;;;41.70;23.64
22753;BME280;11543;43.144;24.684;2022-07-29T12:17:58;98619.28;;;41.75;23.73
22753;BME280;11543;43.144;24.684;2022-07-29T12:20:26;98619.59;;;41.89;23.58
22753;BME280;11543;43.144;24.684;2022-07-29T12:22:52;98609.38;;;42.00;23.23
22753;BME280;11543;43.144;24.684;2022-07-29T12:25:19;98601.78;;;41.85;22.60
22753;BME280;11543;43.144;24.684;2022-07-29T12:27:45;98607.19;;;41.74;23.39
22753;BME280;11543;43.144;24.684;2022-07-29T12:30:12;98600.75;;;41.74;23.38
22753;BME280;11543;43.144;24.684;2022-07-29T12:32:40;98599.56;;;41.75;23.70
22753;BME280;11543;43.144;24.684;2022-07-29T12:37:37;98598.28;;;42.07;23.53
22753;BME280;11543;43.144;24.684;2022-07-29T12:40:04;98597.84;;;42.24;23.28
22753;BME280;11543;43.144;24.684;2022-07-29T12:42:30;98594.13;;;42.40;23.10
22753;BME280;11543;43.144;24.684;2022-07-29T12:44:55;98569.38;;;42.49;22.60
22753;BME280;11543;43.144;24.684;2022-07-29T12:47:21;98580.19;;;42.66;22.79
22753;BME280;11543;43.144;24.684;2022-07-29T12:49:48;98583.47;;;42.68;22.50
22753;BME280;11543;43.144;24.684;2022-07-29T12:52:30;98580.31;;;42.73;22.74
22753;BME280;11543;43.144;24.684;2022-07-29T12:54:56;98583.53;;;42.72;22.65
22753;BME280;11543;43.144;24.684;2022-07-29T12:57:22;98581.56;;;42.53;23.49
22753;BME280;11543;43.144;24.684;2022-07-29T13:00:09;98576.69;;;42.34;23.48
22753;BME280;11543;43.144;24.684;2022-07-29T13:02:37;98577.28;;;42.05;23.39
22753;BME280;11543;43.144;24.684;2022-07-29T13:05:04;98574.50;;;41.89;23.29
22753;BME280;11543;43.144;24.684;2022-07-29T13:07:32;98569.31;;;41.72;23.33
22753;BME280;11543;43.144;24.684;2022-07-29T13:10:17;98569.72;;;41.58;23.00
22753;BME280;11543;43.144;24.684;2022-07-29T13:13:02;98583.50;;;41.28;23.27
22753;BME280;11543;43.144;24.684;2022-07-29T13:15:29;98576.22;;;40.95;23.87
22753;BME280;11543;43.144;24.684;2022-07-29T13:17:54;98575.22;;;40.60;24.34
22753;BME280;11543;43.144;24.684;2022-07-29T13:20:24;98558.94;;;40.37;24.54
22753;BME280;11543;43.144;24.684;2022-07-29T13:22:50;98566.94;;;40.23;25.21
22753;BME280;11543;43.144;24.684;2022-07-29T13:25:24;98573.28;;;40.20;25.30
22753;BME280;11543;43.144;24.684;2022-07-29T13:27:49;98552.94;;;40.11;24.72
22753;BME280;11543;43.144;24.684;2022-07-29T13:30:15;98533.31;;;39.99;24.95
22753;BME280;11543;43.144;24.684;2022-07-29T13:32:40;98551.31;;;40.10;25.33